sensor_id;sensor_type;location;lat;lon;timestamp;P1;durP1;ratioP1;P2;durP2;ratioP2
59366;SDS011;45163;47.690;11.770;2023-08-01T00:01:31;152.67;;;143.93;;
59366;SDS011;45163;47.690;11.770;2023-08-01T00:03:58;126.83;;;119.10;;
59366;SDS011;45163;47.690;11.770;2023-08-01T00:06:24;149.10;;;140.23;;
59366;SDS011;45163;47.690;11.770;2023-08-01T00:08:50;168.03;;;158.07;;
59366;SDS011;45163;47.690;11.770;2023-08-01T00:11:17;196.10;;;183.83;;
59366;SDS011;45163;47.690;11.770;2023-08-01T00:13:43;157.30;;;147.73;;
59366;SDS011;45163;47.690;11.770;2023-08-01T00:16:09;135.93;;;127.77;;
59366;SDS011;45163;47.690;11.770;2023-08-01T00:18:35;120.53;;;112.93;;
59366;SDS011;45163;47.690;11.770;2023-08-01T00:21:01;133.53;;;125.23;;
59366;SDS011;45163;47.690;11.770;2023-08-01T00:23:28;134.00;;;125.90;;
59366;SDS011;45163;47.690;11.770;2023-08-01T00:25:54;124.20;;;116.90;;
59366;SDS011;45163;47.690;11.770;2023-08-01T00:28:23;125.23;;;117.93;;
59366;SDS011;45163;47.690;11.770;2023-08-01T00:30:49;117.30;;;110.03;;
59366;SDS011;45163;47.690;11.770;2023-08-01T00:33:15;102.37;;;95.97;;
59366;SDS011;45163;47.690;11.770;2023-08-01T00:35:41;91.07;;;85.37;;
59366;SDS011;45163;47.690;11.770;2023-08-01T00:38:07;74.53;;;70.03;;
59366;SDS011;45163;47.690;11.770;2023-08-01T00:40:33;64.43;;;60.53;;
59366;SDS011;45163;47.690;11.770;2023-08-01T00:42:59;64.77;;;60.93;;
59366;SDS011;45163;47.690;11.770;2023-08-01T00:45:26;63.53;;;59.70;;
59366;SDS011;45163;47.690;11.770;2023-08-01T00:47:53;70.47;;;66.17;;
59366;SDS011;45163;47.690;11.770;2023-08-01T00:50:20;68.03;;;64.00;;
59366;SDS011;45163;47.690;11.770;2023-08-01T00:52:48;66.67;;;62.70;;
59366;SDS011;45163;47.690;11.770;2023-08-01T00:55:17;39.07;;;36.73;;
59366;SDS011;45163;47.690;11.770;2023-08-01T00:57:44;47.43;;;44.57;;
59366;SDS011;45163;47.690;11.770;2023-08-01T01:00:10;40.77;;;38.30;;
59366;SDS011;45163;47.690;11.770;2023-08-01T01:02:37;50.03;;;46.93;;
59366;SDS011;45163;47.690;11.770;2023-08-01T01:05:03;51.77;;;48.67;;
59366;SDS011;45163;47.690;11.770;2023-08-01T01:07:30;63.50;;;59.73;;
59366;SDS011;45163;47.690;11.770;2023-08-01T01:10:00;74.43;;;70.07;;
59366;SDS011;45163;47.690;11.770;2023-08-01T01:12:26;73.80;;;69.50;;
59366;SDS011;45163;47.690;11.770;2023-08-01T01:14:52;83.90;;;78.80;;
59366;SDS011;45163;47.690;11.770;2023-08-01T01:17:18;96.83;;;91.33;;
59366;SDS011;45163;47.690;11.770;2023-08-01T01:19:44;99.73;;;94.17;;
59366;SDS011;45163;47.690;11.770;2023-08-01T01:22:10;102.63;;;96.77;;
59366;SDS011;45163;47.690;11.770;2023-08-01T01:24:36;106.23;;;100.00;;
59366;SDS011;45163;47.690;11.770;2023-08-01T01:27:06;114.10;;;107.40;;
59366;SDS011;45163;47.690;11.770;2023-08-01T01:29:33;119.50;;;112.40;;
59366;SDS011;45163;47.690;11.770;2023-08-01T01:32:00;124.30;;;117.20;;
59366;SDS011;45163;47.690;11.770;2023-08-01T01:34:30;130.40;;;122.93;;
59366;SDS011;45163;47.690;11.770;2023-08-01T01:36:55;127.03;;;119.83;;
59366;SDS011;45163;47.690;11.770;2023-08-01T01:39:21;125.77;;;118.57;;
59366;SDS011;45163;47.690;11.770;2023-08-01T01:41:47;126.17;;;119.00;;
59366;SDS011;45163;47.690;11.770;2023-08-01T01:44:13;126.57;;;119.07;;
59366;SDS011;45163;47.690;11.770;2023-08-01T01:46:39;115.47;;;108.90;;
59366;SDS011;45163;47.690;11.770;2023-08-01T01:49:06;101.53;;;95.87;;
59366;SDS011;45163;47.690;11.770;2023-08-01T01:51:32;81.57;;;76.87;;
59366;SDS011;45163;47.690;11.770;2023-08-01T01:53:58;76.23;;;71.80;;
59366;SDS011;45163;47.690;11.770;2023-08-01T01:56:24;79.87;;;75.37;;
59366;SDS011;45163;47.690;11.770;2023-08-01T01:58:49;94.47;;;89.17;;
59366;SDS011;45163;47.690;11.770;2023-08-01T02:01:15;84.33;;;79.30;;
59366;SDS011;45163;47.690;11.770;2023-08-01T02:03:41;83.80;;;78.73;;
59366;SDS011;45163;47.690;11.770;2023-08-01T02:06:07;94.87;;;89.33;;
59366;SDS011;45163;47.690;11.770;2023-08-01T02:08:33;92.77;;;87.33;;
59366;SDS011;45163;47.690;11.770;2023-08-01T02:10:59;90.67;;;85.50;;
59366;SDS011;45163;47.690;11.770;2023-08-01T02:13:26;99.53;;;93.73;;
59366;SDS011;45163;47.690;11.770;2023-08-01T02:15:53;88.30;;;83.17;;
59366;SDS011;45163;47.690;11.770;2023-08-01T02:18:20;93.03;;;87.70;;
59366;SDS011;45163;47.690;11.770;2023-08-01T02:20:46;89.93;;;84.83;;
59366;SDS011;45163;47.690;11.770;2023-08-01T02:23:12;85.13;;;80.30;;
59366;SDS011;45163;47.690;11.770;2023-08-01T02:25:38;89.63;;;84.47;;
59366;SDS011;45163;47.690;11.770;2023-08-01T02:28:05;88.83;;;83.67;;
59366;SDS011;45163;47.690;11.770;2023-08-01T02:30:32;81.37;;;76.67;;
59366;SDS011;45163;47.690;11.770;2023-08-01T02:32:59;80.43;;;75.90;;
59366;SDS011;45163;47.690;11.770;2023-08-01T02:35:24;84.00;;;79.20;;
59366;SDS011;45163;47.690;11.770;2023-08-01T02:37:50;73.43;;;68.97;;
59366;SDS011;45163;47.690;11.770;2023-08-01T02:40:16;70.90;;;66.60;;
59366;SDS011;45163;47.690;11.770;2023-08-01T02:42:42;70.47;;;66.20;;
59366;SDS011;45163;47.690;11.770;2023-08-01T02:45:08;59.17;;;55.77;;
59366;SDS011;45163;47.690;11.770;2023-08-01T02:47:34;53.53;;;50.53;;
59366;SDS011;45163;47.690;11.770;2023-08-01T02:50:00;63.83;;;60.17;;
59366;SDS011;45163;47.690;11.770;2023-08-01T02:52:26;62.80;;;59.13;;
59366;SDS011;45163;47.690;11.770;2023-08-01T02:54:53;67.80;;;63.77;;
59366;SDS011;45163;47.690;11.770;2023-08-01T02:57:19;73.40;;;69.00;;
59366;SDS011;45163;47.690;11.770;2023-08-01T02:59:45;69.70;;;65.57;;
59366;SDS011;45163;47.690;11.770;2023-08-01T03:02:11;78.23;;;73.60;;
59366;SDS011;45163;47.690;11.770;2023-08-01T03:04:37;77.77;;;73.10;;
59366;SDS011;45163;47.690;11.770;2023-08-01T03:07:03;76.90;;;72.30;;
59366;SDS011;45163;47.690;11.770;2023-08-01T03:09:29;66.33;;;62.33;;
59366;SDS011;45163;47.690;11.770;2023-08-01T03:11:55;67.83;;;63.63;;
59366;SDS011;45163;47.690;11.770;2023-08-01T03:14:21;65.33;;;61.30;;
59366;SDS011;45163;47.690;11.770;2023-08-01T03:16:46;63.27;;;59.40;;
59366;SDS011;45163;47.690;11.770;2023-08-01T03:19:12;71.60;;;67.27;;
59366;SDS011;45163;47.690;11.770;2023-08-01T03:21:39;70.87;;;66.60;;
59366;SDS011;45163;47.690;11.770;2023-08-01T03:24:05;72.20;;;67.93;;
59366;SDS011;45163;47.690;11.770;2023-08-01T03:26:36;74.40;;;70.10;;
59366;SDS011;45163;47.690;11.770;2023-08-01T03:29:03;77.60;;;73.07;;
59366;SDS011;45163;47.690;11.770;2023-08-01T03:31:30;80.93;;;76.13;;
59366;SDS011;45163;47.690;11.770;2023-08-01T03:33:56;77.20;;;72.63;;
59366;SDS011;45163;47.690;11.770;2023-08-01T03:36:25;83.40;;;78.40;;
59366;SDS011;45163;47.690;11.770;2023-08-01T03:38:51;84.13;;;79.03;;
59366;SDS011;45163;47.690;11.770;2023-08-01T03:41:17;75.77;;;71.27;;
59366;SDS011;45163;47.690;11.770;2023-08-01T03:43:43;67.97;;;63.87;;
59366;SDS011;45163;47.690;11.770;2023-08-01T03:46:09;81.77;;;76.97;;
59366;SDS011;45163;47.690;11.770;2023-08-01T03:48:35;94.10;;;88.57;;
59366;SDS011;45163;47.690;11.770;2023-08-01T03:51:01;94.60;;;89.10;;
59366;SDS011;45163;47.690;11.770;2023-08-01T03:53:29;109.17;;;102.87;;
59366;SDS011;45163;47.690;11.770;2023-08-01T03:55:55;98.43;;;92.83;;
59366;SDS011;45163;47.690;11.770;2023-08-01T03:58:21;110.57;;;104.17;;
59366;SDS011;45163;47.690;11.770;2023-08-01T04:00:47;114.17;;;107.53;;
59366;SDS011;45163;47.690;11.770;2023-08-01T04:03:13;98.47;;;92.77;;
59366;SDS011;45163;47.690;11.770;2023-08-01T04:05:39;93.43;;;88.07;;
59366;SDS011;45163;47.690;11.770;2023-08-01T04:08:05;85.87;;;80.80;;
59366;SDS011;45163;47.690;11.770;2023-08-01T04:10:32;86.93;;;81.83;;
59366;SDS011;45163;47.690;11.770;2023-08-01T04:12:58;109.77;;;103.30;;
59366;SDS011;45163;47.690;11.770;2023-08-01T04:15:23;110.63;;;104.30;;
59366;SDS011;45163;47.690;11.770;2023-08-01T04:17:49;114.43;;;107.83;;
59366;SDS011;45163;47.690;11.770;2023-08-01T04:20:15;98.50;;;92.67;;
59366;SDS011;45163;47.690;11.770;2023-08-01T04:22:41;86.43;;;81.43;;
59366;SDS011;45163;47.690;11.770;2023-08-01T04:25:07;73.80;;;69.47;;
59366;SDS011;45163;47.690;11.770;2023-08-01T04:27:34;68.87;;;64.60;;
59366;SDS011;45163;47.690;11.770;2023-08-01T04:30:00;62.07;;;58.37;;
59366;SDS011;45163;47.690;11.770;2023-08-01T04:32:26;62.80;;;59.03;;
59366;SDS011;45163;47.690;11.770;2023-08-01T04:34:52;59.63;;;55.93;;
59366;SDS011;45163;47.690;11.770;2023-08-01T04:37:18;64.97;;;60.87;;
59366;SDS011;45163;47.690;11.770;2023-08-01T04:39:47;67.57;;;63.37;;
59366;SDS011;45163;47.690;11.770;2023-08-01T04:42:14;73.57;;;69.20;;
59366;SDS011;45163;47.690;11.770;2023-08-01T04:44:40;72.07;;;67.77;;
59366;SDS011;45163;47.690;11.770;2023-08-01T04:47:06;71.83;;;67.47;;
59366;SDS011;45163;47.690;11.770;2023-08-01T04:49:31;59.43;;;55.83;;
59366;SDS011;45163;47.690;11.770;2023-08-01T04:51:57;71.07;;;66.70;;
59366;SDS011;45163;47.690;11.770;2023-08-01T04:54:23;70.93;;;66.57;;
59366;SDS011;45163;47.690;11.770;2023-08-01T04:56:49;66.97;;;62.83;;
59366;SDS011;45163;47.690;11.770;2023-08-01T04:59:15;60.03;;;56.23;;
59366;SDS011;45163;47.690;11.770;2023-08-01T05:01:41;60.20;;;56.43;;
59366;SDS011;45163;47.690;11.770;2023-08-01T05:04:07;57.90;;;54.20;;
59366;SDS011;45163;47.690;11.770;2023-08-01T05:06:33;66.17;;;62.03;;
59366;SDS011;45163;47.690;11.770;2023-08-01T05:08:59;68.77;;;64.43;;
59366;SDS011;45163;47.690;11.770;2023-08-01T05:11:25;57.33;;;53.83;;
59366;SDS011;45163;47.690;11.770;2023-08-01T05:13:51;59.03;;;55.30;;
59366;SDS011;45163;47.690;11.770;2023-08-01T05:16:17;64.40;;;60.43;;
59366;SDS011;45163;47.690;11.770;2023-08-01T05:18:43;84.93;;;79.80;;
59366;SDS011;45163;47.690;11.770;2023-08-01T05:21:09;82.07;;;77.13;;
59366;SDS011;45163;47.690;11.770;2023-08-01T05:23:36;85.90;;;80.80;;
59366;SDS011;45163;47.690;11.770;2023-08-01T05:26:02;78.43;;;73.67;;
59366;SDS011;45163;47.690;11.770;2023-08-01T05:28:28;73.70;;;69.23;;
59366;SDS011;45163;47.690;11.770;2023-08-01T05:30:54;65.80;;;61.70;;
59366;SDS011;45163;47.690;11.770;2023-08-01T05:33:20;65.67;;;61.63;;
59366;SDS011;45163;47.690;11.770;2023-08-01T05:35:46;68.17;;;63.90;;
59366;SDS011;45163;47.690;11.770;2023-08-01T05:38:12;61.33;;;57.53;;
59366;SDS011;45163;47.690;11.770;2023-08-01T05:40:38;62.73;;;58.77;;
59366;SDS011;45163;47.690;11.770;2023-08-01T05:43:05;60.57;;;56.63;;
59366;SDS011;45163;47.690;11.770;2023-08-01T05:45:34;67.00;;;62.73;;
59366;SDS011;45163;47.690;11.770;2023-08-01T05:48:01;74.57;;;69.97;;
59366;SDS011;45163;47.690;11.770;2023-08-01T05:50:27;83.57;;;78.60;;
59366;SDS011;45163;47.690;11.770;2023-08-01T05:52:53;94.13;;;88.57;;
59366;SDS011;45163;47.690;11.770;2023-08-01T05:55:19;85.43;;;80.37;;
59366;SDS011;45163;47.690;11.770;2023-08-01T05:57:46;112.60;;;105.93;;
59366;SDS011;45163;47.690;11.770;2023-08-01T06:00:14;122.67;;;115.47;;
59366;SDS011;45163;47.690;11.770;2023-08-01T06:02:41;165.00;;;154.97;;
59366;SDS011;45163;47.690;11.770;2023-08-01T06:05:07;178.23;;;167.33;;
59366;SDS011;45163;47.690;11.770;2023-08-01T06:07:33;175.67;;;165.10;;
59366;SDS011;45163;47.690;11.770;2023-08-01T06:09:59;157.37;;;147.83;;
59366;SDS011;45163;47.690;11.770;2023-08-01T06:12:25;168.70;;;158.47;;
59366;SDS011;45163;47.690;11.770;2023-08-01T06:14:51;173.80;;;163.57;;
59366;SDS011;45163;47.690;11.770;2023-08-01T06:17:17;191.40;;;180.37;;
59366;SDS011;45163;47.690;11.770;2023-08-01T06:19:43;180.43;;;169.93;;
59366;SDS011;45163;47.690;11.770;2023-08-01T06:22:09;180.87;;;170.63;;
59366;SDS011;45163;47.690;11.770;2023-08-01T06:24:35;180.53;;;170.57;;
59366;SDS011;45163;47.690;11.770;2023-08-01T06:27:01;191.90;;;180.83;;
59366;SDS011;45163;47.690;11.770;2023-08-01T06:29:27;195.00;;;183.90;;
59366;SDS011;45163;47.690;11.770;2023-08-01T06:31:53;167.17;;;157.57;;
59366;SDS011;45163;47.690;11.770;2023-08-01T06:34:19;189.53;;;178.67;;
59366;SDS011;45163;47.690;11.770;2023-08-01T06:36:45;201.40;;;190.00;;
59366;SDS011;45163;47.690;11.770;2023-08-01T06:39:11;187.83;;;177.13;;
59366;SDS011;45163;47.690;11.770;2023-08-01T06:41:37;178.47;;;168.23;;
59366;SDS011;45163;47.690;11.770;2023-08-01T06:44:03;175.70;;;165.57;;
59366;SDS011;45163;47.690;11.770;2023-08-01T06:46:29;170.97;;;160.97;;
59366;SDS011;45163;47.690;11.770;2023-08-01T06:48:55;138.00;;;129.80;;
59366;SDS011;45163;47.690;11.770;2023-08-01T06:51:21;131.07;;;123.33;;
59366;SDS011;45163;47.690;11.770;2023-08-01T06:53:47;159.77;;;150.43;;
59366;SDS011;45163;47.690;11.770;2023-08-01T06:56:13;178.70;;;168.37;;
59366;SDS011;45163;47.690;11.770;2023-08-01T06:58:39;166.07;;;156.50;;
59366;SDS011;45163;47.690;11.770;2023-08-01T07:01:05;153.10;;;144.27;;
59366;SDS011;45163;47.690;11.770;2023-08-01T07:03:31;158.27;;;149.07;;
59366;SDS011;45163;47.690;11.770;2023-08-01T07:05:57;164.83;;;155.33;;
59366;SDS011;45163;47.690;11.770;2023-08-01T07:08:23;158.43;;;149.20;;
59366;SDS011;45163;47.690;11.770;2023-08-01T07:10:49;238.03;;;223.73;;
59366;SDS011;45163;47.690;11.770;2023-08-01T07:13:15;217.83;;;205.03;;
59366;SDS011;45163;47.690;11.770;2023-08-01T07:15:42;161.80;;;152.17;;
59366;SDS011;45163;47.690;11.770;2023-08-01T07:18:08;128.40;;;120.73;;
59366;SDS011;45163;47.690;11.770;2023-08-01T07:20:34;172.80;;;162.17;;
59366;SDS011;45163;47.690;11.770;2023-08-01T07:23:00;162.47;;;152.47;;
59366;SDS011;45163;47.690;11.770;2023-08-01T07:25:26;152.73;;;143.50;;
59366;SDS011;45163;47.690;11.770;2023-08-01T07:27:52;142.10;;;133.60;;
59366;SDS011;45163;47.690;11.770;2023-08-01T07:30:18;156.83;;;147.47;;
59366;SDS011;45163;47.690;11.770;2023-08-01T07:32:44;191.43;;;180.00;;
59366;SDS011;45163;47.690;11.770;2023-08-01T07:35:09;179.30;;;168.50;;
59366;SDS011;45163;47.690;11.770;2023-08-01T07:37:36;168.83;;;158.53;;
59366;SDS011;45163;47.690;11.770;2023-08-01T07:40:04;154.57;;;145.33;;
59366;SDS011;45163;47.690;11.770;2023-08-01T07:42:31;163.37;;;153.37;;
59366;SDS011;45163;47.690;11.770;2023-08-01T07:44:57;161.83;;;152.07;;
59366;SDS011;45163;47.690;11.770;2023-08-01T07:47:23;137.67;;;129.20;;
59366;SDS011;45163;47.690;11.770;2023-08-01T07:49:50;141.70;;;133.10;;
59366;SDS011;45163;47.690;11.770;2023-08-01T07:52:17;105.93;;;99.57;;
59366;SDS011;45163;47.690;11.770;2023-08-01T07:54:43;129.70;;;121.90;;
59366;SDS011;45163;47.690;11.770;2023-08-01T07:57:09;101.70;;;95.60;;
59366;SDS011;45163;47.690;11.770;2023-08-01T07:59:34;100.50;;;94.57;;
59366;SDS011;45163;47.690;11.770;2023-08-01T08:02:00;103.43;;;97.37;;
59366;SDS011;45163;47.690;11.770;2023-08-01T08:04:26;80.90;;;76.03;;
59366;SDS011;45163;47.690;11.770;2023-08-01T08:06:52;70.80;;;66.43;;
59366;SDS011;45163;47.690;11.770;2023-08-01T08:09:20;69.00;;;64.83;;
59366;SDS011;45163;47.690;11.770;2023-08-01T08:11:48;77.67;;;73.07;;
59366;SDS011;45163;47.690;11.770;2023-08-01T08:14:15;86.43;;;81.33;;
59366;SDS011;45163;47.690;11.770;2023-08-01T08:16:42;115.93;;;109.17;;
59366;SDS011;45163;47.690;11.770;2023-08-01T08:19:08;245.23;;;227.80;;
59366;SDS011;45163;47.690;11.770;2023-08-01T08:21:34;127.83;;;120.40;;
59366;SDS011;45163;47.690;11.770;2023-08-01T08:24:03;166.23;;;156.10;;
59366;SDS011;45163;47.690;11.770;2023-08-01T08:26:29;60.10;;;56.50;;
59366;SDS011;45163;47.690;11.770;2023-08-01T08:28:56;44.13;;;41.33;;
59366;SDS011;45163;47.690;11.770;2023-08-01T08:31:22;46.57;;;43.80;;
59366;SDS011;45163;47.690;11.770;2023-08-01T08:33:48;106.90;;;100.23;;
59366;SDS011;45163;47.690;11.770;2023-08-01T08:36:14;94.17;;;88.47;;
59366;SDS011;45163;47.690;11.770;2023-08-01T08:38:40;90.90;;;85.60;;
59366;SDS011;45163;47.690;11.770;2023-08-01T08:44:06;77.37;;;72.73;;
59366;SDS011;45163;47.690;11.770;2023-08-01T08:46:36;83.83;;;78.83;;
59366;SDS011;45163;47.690;11.770;2023-08-01T08:49:07;157.00;;;147.47;;
59366;SDS011;45163;47.690;11.770;2023-08-01T08:51:34;213.40;;;200.67;;
59366;SDS011;45163;47.690;11.770;2023-08-01T08:54:02;158.97;;;148.90;;
59366;SDS011;45163;47.690;11.770;2023-08-01T08:56:30;189.20;;;177.10;;
59366;SDS011;45163;47.690;11.770;2023-08-01T08:58:56;231.00;;;217.00;;
59366;SDS011;45163;47.690;11.770;2023-08-01T09:01:22;181.73;;;171.03;;
59366;SDS011;45163;47.690;11.770;2023-08-01T09:03:48;101.93;;;95.90;;
59366;SDS011;45163;47.690;11.770;2023-08-01T09:06:15;92.77;;;87.27;;
59366;SDS011;45163;47.690;11.770;2023-08-01T09:08:48;109.33;;;103.07;;
59366;SDS011;45163;47.690;11.770;2023-08-01T09:11:17;154.83;;;145.53;;
59366;SDS011;45163;47.690;11.770;2023-08-01T09:13:43;183.53;;;172.80;;
59366;SDS011;45163;47.690;11.770;2023-08-01T09:16:09;232.07;;;218.27;;
59366;SDS011;45163;47.690;11.770;2023-08-01T09:18:46;184.90;;;174.30;;
59366;SDS011;45163;47.690;11.770;2023-08-01T09:21:13;150.03;;;141.50;;
59366;SDS011;45163;47.690;11.770;2023-08-01T09:23:39;82.10;;;77.23;;
59366;SDS011;45163;47.690;11.770;2023-08-01T09:26:17;79.33;;;74.30;;
59366;SDS011;45163;47.690;11.770;2023-08-01T09:28:57;116.57;;;109.57;;
59366;SDS011;45163;47.690;11.770;2023-08-01T09:31:27;78.70;;;73.93;;
59366;SDS011;45163;47.690;11.770;2023-08-01T09:33:54;88.27;;;83.43;;
59366;SDS011;45163;47.690;11.770;2023-08-01T09:36:21;109.27;;;103.17;;
59366;SDS011;45163;47.690;11.770;2023-08-01T09:38:48;114.70;;;108.30;;
59366;SDS011;45163;47.690;11.770;2023-08-01T09:41:17;162.27;;;153.47;;
59366;SDS011;45163;47.690;11.770;2023-08-01T09:43:44;186.40;;;176.60;;
59366;SDS011;45163;47.690;11.770;2023-08-01T09:46:12;182.77;;;173.10;;
59366;SDS011;45163;47.690;11.770;2023-08-01T09:48:38;124.97;;;117.73;;
59366;SDS011;45163;47.690;11.770;2023-08-01T09:51:09;97.67;;;91.90;;
59366;SDS011;45163;47.690;11.770;2023-08-01T09:53:35;91.50;;;86.23;;
59366;SDS011;45163;47.690;11.770;2023-08-01T09:56:17;97.83;;;92.23;;
59366;SDS011;45163;47.690;11.770;2023-08-01T09:58:46;86.43;;;81.47;;
59366;SDS011;45163;47.690;11.770;2023-08-01T10:01:14;98.07;;;92.37;;
59366;SDS011;45163;47.690;11.770;2023-08-01T10:03:44;111.07;;;104.47;;
59366;SDS011;45163;47.690;11.770;2023-08-01T10:06:14;158.13;;;149.43;;
59366;SDS011;45163;47.690;11.770;2023-08-01T10:08:45;126.33;;;119.00;;
59366;SDS011;45163;47.690;11.770;2023-08-01T10:11:14;176.87;;;167.50;;
59366;SDS011;45163;47.690;11.770;2023-08-01T10:13:42;175.67;;;166.17;;
59366;SDS011;45163;47.690;11.770;2023-08-01T10:16:12;182.80;;;173.07;;
59366;SDS011;45163;47.690;11.770;2023-08-01T10:18:39;185.57;;;175.50;;
59366;SDS011;45163;47.690;11.770;2023-08-01T10:21:06;203.27;;;192.27;;
59366;SDS011;45163;47.690;11.770;2023-08-01T10:23:34;200.87;;;189.87;;
59366;SDS011;45163;47.690;11.770;2023-08-01T10:26:02;211.07;;;198.93;;
59366;SDS011;45163;47.690;11.770;2023-08-01T10:28:34;211.63;;;199.17;;
59366;SDS011;45163;47.690;11.770;2023-08-01T10:31:11;109.07;;;102.33;;
59366;SDS011;45163;47.690;11.770;2023-08-01T10:33:38;65.30;;;61.53;;
59366;SDS011;45163;47.690;11.770;2023-08-01T10:36:15;127.47;;;120.13;;
59366;SDS011;45163;47.690;11.770;2023-08-01T10:38:52;138.60;;;130.13;;
59366;SDS011;45163;47.690;11.770;2023-08-01T10:41:20;91.13;;;85.63;;
59366;SDS011;45163;47.690;11.770;2023-08-01T10:44:14;104.90;;;98.63;;
59366;SDS011;45163;47.690;11.770;2023-08-01T10:52:02;174.73;;;164.97;;
59366;SDS011;45163;47.690;11.770;2023-08-01T10:54:56;160.70;;;151.80;;
59366;SDS011;45163;47.690;11.770;2023-08-01T10:57:30;106.57;;;100.63;;
59366;SDS011;45163;47.690;11.770;2023-08-01T10:59:57;64.07;;;60.27;;
59366;SDS011;45163;47.690;11.770;2023-08-01T11:02:25;55.80;;;52.50;;
59366;SDS011;45163;47.690;11.770;2023-08-01T11:04:58;57.60;;;54.13;;
59366;SDS011;45163;47.690;11.770;2023-08-01T11:07:29;86.50;;;81.33;;
59366;SDS011;45163;47.690;11.770;2023-08-01T11:10:11;75.37;;;71.07;;
59366;SDS011;45163;47.690;11.770;2023-08-01T11:12:39;75.27;;;70.80;;
59366;SDS011;45163;47.690;11.770;2023-08-01T11:15:07;63.90;;;60.07;;
59366;SDS011;45163;47.690;11.770;2023-08-01T11:17:35;75.53;;;71.13;;
59366;SDS011;45163;47.690;11.770;2023-08-01T11:20:02;52.37;;;49.33;;
59366;SDS011;45163;47.690;11.770;2023-08-01T11:22:33;41.90;;;39.37;;
59366;SDS011;45163;47.690;11.770;2023-08-01T11:24:59;84.43;;;79.37;;
59366;SDS011;45163;47.690;11.770;2023-08-01T11:27:25;104.10;;;97.83;;
59366;SDS011;45163;47.690;11.770;2023-08-01T11:29:53;85.77;;;80.57;;
59366;SDS011;45163;47.690;11.770;2023-08-01T11:32:20;78.30;;;73.83;;
59366;SDS011;45163;47.690;11.770;2023-08-01T11:34:46;59.17;;;55.67;;
59366;SDS011;45163;47.690;11.770;2023-08-01T11:37:14;43.63;;;41.13;;
59366;SDS011;45163;47.690;11.770;2023-08-01T11:39:41;151.40;;;142.77;;
59366;SDS011;45163;47.690;11.770;2023-08-01T11:42:07;380.93;;;355.80;;
59366;SDS011;45163;47.690;11.770;2023-08-01T11:44:40;185.07;;;174.20;;
59366;SDS011;45163;47.690;11.770;2023-08-01T11:47:13;154.90;;;144.83;;
59366;SDS011;45163;47.690;11.770;2023-08-01T11:49:47;126.67;;;118.33;;
59366;SDS011;45163;47.690;11.770;2023-08-01T11:52:24;137.07;;;128.37;;
59366;SDS011;45163;47.690;11.770;2023-08-01T11:54:51;128.80;;;120.50;;
59366;SDS011;45163;47.690;11.770;2023-08-01T11:57:17;168.70;;;159.40;;
59366;SDS011;45163;47.690;11.770;2023-08-01T11:59:50;122.77;;;115.87;;
59366;SDS011;45163;47.690;11.770;2023-08-01T12:02:29;53.03;;;49.93;;
59366;SDS011;45163;47.690;11.770;2023-08-01T12:04:56;54.13;;;50.97;;
59366;SDS011;45163;47.690;11.770;2023-08-01T12:07:24;59.80;;;56.30;;
59366;SDS011;45163;47.690;11.770;2023-08-01T12:09:58;64.13;;;60.43;;
59366;SDS011;45163;47.690;11.770;2023-08-01T12:12:26;40.53;;;38.20;;
59366;SDS011;45163;47.690;11.770;2023-08-01T12:14:53;32.33;;;30.40;;
59366;SDS011;45163;47.690;11.770;2023-08-01T12:17:20;36.20;;;34.03;;
59366;SDS011;45163;47.690;11.770;2023-08-01T12:19:46;44.97;;;42.23;;
59366;SDS011;45163;47.690;11.770;2023-08-01T12:22:12;46.97;;;44.17;;
59366;SDS011;45163;47.690;11.770;2023-08-01T12:24:38;53.37;;;50.23;;
59366;SDS011;45163;47.690;11.770;2023-08-01T12:27:05;70.23;;;66.20;;
59366;SDS011;45163;47.690;11.770;2023-08-01T12:29:32;226.70;;;212.90;;
59366;SDS011;45163;47.690;11.770;2023-08-01T12:31:58;64.97;;;61.27;;
59366;SDS011;45163;47.690;11.770;2023-08-01T12:34:24;46.03;;;43.30;;
59366;SDS011;45163;47.690;11.770;2023-08-01T12:36:50;76.87;;;72.67;;
59366;SDS011;45163;47.690;11.770;2023-08-01T12:39:23;84.63;;;79.97;;
59366;SDS011;45163;47.690;11.770;2023-08-01T12:41:54;115.73;;;108.80;;
59366;SDS011;45163;47.690;11.770;2023-08-01T12:44:20;66.73;;;62.83;;
59366;SDS011;45163;47.690;11.770;2023-08-01T12:46:47;42.77;;;40.33;;
59366;SDS011;45163;47.690;11.770;2023-08-01T12:49:13;101.10;;;95.63;;
59366;SDS011;45163;47.690;11.770;2023-08-01T12:51:39;100.03;;;94.40;;
59366;SDS011;45163;47.690;11.770;2023-08-01T12:54:05;71.33;;;67.37;;
59366;SDS011;45163;47.690;11.770;2023-08-01T12:56:31;52.43;;;49.50;;
59366;SDS011;45163;47.690;11.770;2023-08-01T12:58:57;50.23;;;47.43;;
59366;SDS011;45163;47.690;11.770;2023-08-01T13:01:23;44.60;;;42.10;;
59366;SDS011;45163;47.690;11.770;2023-08-01T13:03:49;50.30;;;47.30;;
59366;SDS011;45163;47.690;11.770;2023-08-01T13:06:15;38.70;;;36.30;;
59366;SDS011;45163;47.690;11.770;2023-08-01T13:08:43;32.40;;;30.50;;
59366;SDS011;45163;47.690;11.770;2023-08-01T13:11:09;41.90;;;39.47;;
59366;SDS011;45163;47.690;11.770;2023-08-01T13:13:37;68.20;;;64.20;;
59366;SDS011;45163;47.690;11.770;2023-08-01T13:16:03;96.67;;;91.07;;
59366;SDS011;45163;47.690;11.770;2023-08-01T13:18:29;101.77;;;95.90;;
59366;SDS011;45163;47.690;11.770;2023-08-01T13:20:56;50.20;;;47.23;;
59366;SDS011;45163;47.690;11.770;2023-08-01T13:23:23;41.63;;;39.23;;
59366;SDS011;45163;47.690;11.770;2023-08-01T13:25:50;50.37;;;47.37;;
59366;SDS011;45163;47.690;11.770;2023-08-01T13:28:16;56.63;;;53.43;;
59366;SDS011;45163;47.690;11.770;2023-08-01T13:30:42;68.93;;;65.10;;
59366;SDS011;45163;47.690;11.770;2023-08-01T13:33:07;148.65;;;139.95;;
59366;SDS011;45163;47.690;11.770;2023-08-01T13:35:34;62.33;;;58.55;;
59366;SDS011;45163;47.690;11.770;2023-08-01T13:38:00;217.05;;;204.95;;
59366;SDS011;45163;47.690;11.770;2023-08-01T13:40:26;178.25;;;167.98;;
59366;SDS011;45163;47.690;11.770;2023-08-01T13:42:52;96.05;;;90.25;;
59366;SDS011;45163;47.690;11.770;2023-08-01T13:45:18;85.70;;;79.97;;
59366;SDS011;45163;47.690;11.770;2023-08-01T13:47:44;26.33;;;24.83;;
59366;SDS011;45163;47.690;11.770;2023-08-01T13:50:10;43.97;;;41.50;;
59366;SDS011;45163;47.690;11.770;2023-08-01T13:52:37;52.70;;;49.63;;
59366;SDS011;45163;47.690;11.770;2023-08-01T13:55:03;43.00;;;40.50;;
59366;SDS011;45163;47.690;11.770;2023-08-01T13:57:30;25.77;;;24.20;;
59366;SDS011;45163;47.690;11.770;2023-08-01T13:59:56;33.07;;;31.27;;
59366;SDS011;45163;47.690;11.770;2023-08-01T14:02:22;37.20;;;35.20;;
59366;SDS011;45163;47.690;11.770;2023-08-01T14:04:50;49.90;;;47.00;;
59366;SDS011;45163;47.690;11.770;2023-08-01T14:07:18;53.73;;;50.73;;